sensor_id;sensor_type;location;lat;lon;timestamp;temperature;humidity
3690;DHT22;1861;50.240;8.596;2023-07-22T00:02:13;18.30;99.00
3690;DHT22;1861;50.240;8.596;2023-07-22T00:04:41;18.20;99.00
3690;DHT22;1861;50.240;8.596;2023-07-22T00:07:09;18.30;98.90
3690;DHT22;1861;50.240;8.596;2023-07-22T00:09:38;18.30;98.80
3690;DHT22;1861;50.240;8.596;2023-07-22T00:12:08;18.30;98.60
3690;DHT22;1861;50.240;8.596;2023-07-22T00:14:39;18.30;98.60
3690;DHT22;1861;50.240;8.596;2023-07-22T00:17:07;18.20;98.40
3690;DHT22;1861;50.240;8.596;2023-07-22T00:19:36;18.10;98.50
3690;DHT22;1861;50.240;8.596;2023-07-22T00:22:04;18.10;98.50
3690;DHT22;1861;50.240;8.596;2023-07-22T00:24:32;18.00;98.40
3690;DHT22;1861;50.240;8.596;2023-07-22T00:27:02;18.00;98.30
3690;DHT22;1861;50.240;8.596;2023-07-22T00:29:30;18.00;98.20
3690;DHT22;1861;50.240;8.596;2023-07-22T00:31:58;17.90;98.30
3690;DHT22;1861;50.240;8.596;2023-07-22T00:34:26;17.90;98.30
3690;DHT22;1861;50.240;8.596;2023-07-22T00:36:54;17.90;98.20
3690;DHT22;1861;50.240;8.596;2023-07-22T00:39:22;17.90;98.20
3690;DHT22;1861;50.240;8.596;2023-07-22T00:41:51;17.90;98.20
3690;DHT22;1861;50.240;8.596;2023-07-22T00:44:20;17.90;98.00
3690;DHT22;1861;50.240;8.596;2023-07-22T00:46:48;17.80;98.10
3690;DHT22;1861;50.240;8.596;2023-07-22T00:49:18;17.80;98.00
3690;DHT22;1861;50.240;8.596;2023-07-22T00:51:47;17.80;98.00
3690;DHT22;1861;50.240;8.596;2023-07-22T00:54:15;17.80;98.00
3690;DHT22;1861;50.240;8.596;2023-07-22T00:56:44;17.80;98.00
3690;DHT22;1861;50.240;8.596;2023-07-22T00:59:12;17.70;97.80
3690;DHT22;1861;50.240;8.596;2023-07-22T01:01:42;17.70;97.80
3690;DHT22;1861;50.240;8.596;2023-07-22T01:04:13;17.70;97.80
3690;DHT22;1861;50.240;8.596;2023-07-22T01:06:43;17.70;97.70
3690;DHT22;1861;50.240;8.596;2023-07-22T01:09:11;17.70;97.60
3690;DHT22;1861;50.240;8.596;2023-07-22T01:11:40;17.70;97.50
3690;DHT22;1861;50.240;8.596;2023-07-22T01:14:08;17.70;97.50
3690;DHT22;1861;50.240;8.596;2023-07-22T01:16:37;17.80;97.30
3690;DHT22;1861;50.240;8.596;2023-07-22T01:19:07;17.80;97.40
3690;DHT22;1861;50.240;8.596;2023-07-22T01:21:37;17.70;97.40
3690;DHT22;1861;50.240;8.596;2023-07-22T01:24:07;17.60;97.30
3690;DHT22;1861;50.240;8.596;2023-07-22T01:26:35;17.60;97.10
3690;DHT22;1861;50.240;8.596;2023-07-22T01:29:04;17.60;97.20
3690;DHT22;1861;50.240;8.596;2023-07-22T01:31:34;17.70;96.90
3690;DHT22;1861;50.240;8.596;2023-07-22T01:34:03;17.60;97.20
3690;DHT22;1861;50.240;8.596;2023-07-22T01:36:31;17.50;96.80
3690;DHT22;1861;50.240;8.596;2023-07-22T01:39:00;17.60;96.90
3690;DHT22;1861;50.240;8.596;2023-07-22T01:41:29;17.50;97.00
3690;DHT22;1861;50.240;8.596;2023-07-22T01:43:57;17.40;97.00
3690;DHT22;1861;50.240;8.596;2023-07-22T01:46:26;17.50;96.80
3690;DHT22;1861;50.240;8.596;2023-07-22T01:48:55;17.40;96.90
3690;DHT22;1861;50.240;8.596;2023-07-22T01:51:23;17.40;96.60
3690;DHT22;1861;50.240;8.596;2023-07-22T01:53:52;17.40;96.90
3690;DHT22;1861;50.240;8.596;2023-07-22T01:56:20;17.40;96.80
3690;DHT22;1861;50.240;8.596;2023-07-22T01:58:50;17.40;96.60
3690;DHT22;1861;50.240;8.596;2023-07-22T02:01:18;17.40;96.80
3690;DHT22;1861;50.240;8.596;2023-07-22T02:03:46;17.30;96.70
3690;DHT22;1861;50.240;8.596;2023-07-22T02:06:15;17.20;96.70
3690;DHT22;1861;50.240;8.596;2023-07-22T02:08:43;17.20;96.80
3690;DHT22;1861;50.240;8.596;2023-07-22T02:11:11;17.20;96.80
3690;DHT22;1861;50.240;8.596;2023-07-22T02:13:40;17.20;96.50
3690;DHT22;1861;50.240;8.596;2023-07-22T02:16:09;17.40;96.30
3690;DHT22;1861;50.240;8.596;2023-07-22T02:18:38;17.20;96.40
3690;DHT22;1861;50.240;8.596;2023-07-22T02:21:07;17.20;96.50
3690;DHT22;1861;50.240;8.596;2023-07-22T02:23:35;17.30;96.40
3690;DHT22;1861;50.240;8.596;2023-07-22T02:26:03;17.20;96.50
3690;DHT22;1861;50.240;8.596;2023-07-22T02:28:32;17.20;96.00
3690;DHT22;1861;50.240;8.596;2023-07-22T02:31:02;17.20;96.50
3690;DHT22;1861;50.240;8.596;2023-07-22T02:33:34;17.20;96.30
3690;DHT22;1861;50.240;8.596;2023-07-22T02:36:02;17.20;96.20
3690;DHT22;1861;50.240;8.596;2023-07-22T02:38:30;17.00;96.30
3690;DHT22;1861;50.240;8.596;2023-07-22T02:41:02;17.20;96.30
3690;DHT22;1861;50.240;8.596;2023-07-22T02:43:30;17.20;96.20
3690;DHT22;1861;50.240;8.596;2023-07-22T02:46:01;17.20;95.90
3690;DHT22;1861;50.240;8.596;2023-07-22T02:48:30;17.10;95.90
3690;DHT22;1861;50.240;8.596;2023-07-22T02:51:04;17.20;95.70
3690;DHT22;1861;50.240;8.596;2023-07-22T02:53:32;17.10;96.10
3690;DHT22;1861;50.240;8.596;2023-07-22T02:56:00;17.10;96.00
3690;DHT22;1861;50.240;8.596;2023-07-22T02:58:29;17.00;96.00
3690;DHT22;1861;50.240;8.596;2023-07-22T03:00:57;17.00;96.10
3690;DHT22;1861;50.240;8.596;2023-07-22T03:03:25;16.90;96.20
3690;DHT22;1861;50.240;8.596;2023-07-22T03:05:54;17.10;95.70
3690;DHT22;1861;50.240;8.596;2023-07-22T03:08:23;17.10;95.80
3690;DHT22;1861;50.240;8.596;2023-07-22T03:10:52;17.10;95.90
3690;DHT22;1861;50.240;8.596;2023-07-22T03:13:20;17.10;95.70
3690;DHT22;1861;50.240;8.596;2023-07-22T03:15:48;17.10;95.80
3690;DHT22;1861;50.240;8.596;2023-07-22T03:18:17;17.00;95.90
3690;DHT22;1861;50.240;8.596;2023-07-22T03:20:48;17.00;96.00
3690;DHT22;1861;50.240;8.596;2023-07-22T03:23:17;17.10;95.80
3690;DHT22;1861;50.240;8.596;2023-07-22T03:25:48;17.00;95.90
3690;DHT22;1861;50.240;8.596;2023-07-22T03:28:16;17.00;95.70
3690;DHT22;1861;50.240;8.596;2023-07-22T03:30:45;17.00;95.80
3690;DHT22;1861;50.240;8.596;2023-07-22T03:33:13;17.00;95.80
3690;DHT22;1861;50.240;8.596;2023-07-22T03:35:41;17.10;95.60
3690;DHT22;1861;50.240;8.596;2023-07-22T03:38:10;16.90;95.70
3690;DHT22;1861;50.240;8.596;2023-07-22T03:40:38;16.90;95.70
3690;DHT22;1861;50.240;8.596;2023-07-22T03:43:07;17.10;95.60
3690;DHT22;1861;50.240;8.596;2023-07-22T03:45:36;17.10;95.60
3690;DHT22;1861;50.240;8.596;2023-07-22T03:48:06;17.00;95.70
3690;DHT22;1861;50.240;8.596;2023-07-22T03:50:34;17.10;95.50
3690;DHT22;1861;50.240;8.596;2023-07-22T03:53:02;17.00;95.40
3690;DHT22;1861;50.240;8.596;2023-07-22T03:55:30;17.00;95.50
3690;DHT22;1861;50.240;8.596;2023-07-22T03:57:58;16.90;95.60
3690;DHT22;1861;50.240;8.596;2023-07-22T04:00:28;17.00;95.50
3690;DHT22;1861;50.240;8.596;2023-07-22T04:02:56;16.90;95.60
3690;DHT22;1861;50.240;8.596;2023-07-22T04:05:24;17.00;95.60
3690;DHT22;1861;50.240;8.596;2023-07-22T04:07:52;17.00;95.50
3690;DHT22;1861;50.240;8.596;2023-07-22T04:10:21;17.00;95.50
3690;DHT22;1861;50.240;8.596;2023-07-22T04:12:49;17.00;95.40
3690;DHT22;1861;50.240;8.596;2023-07-22T04:15:17;17.00;95.40
3690;DHT22;1861;50.240;8.596;2023-07-22T04:17:46;17.00;95.50
3690;DHT22;1861;50.240;8.596;2023-07-22T04:20:15;17.10;95.40
3690;DHT22;1861;50.240;8.596;2023-07-22T04:22:44;16.90;95.60
3690;DHT22;1861;50.240;8.596;2023-07-22T04:25:12;16.90;95.50
3690;DHT22;1861;50.240;8.596;2023-07-22T04:27:41;16.90;95.40
3690;DHT22;1861;50.240;8.596;2023-07-22T04:30:10;16.90;95.10
3690;DHT22;1861;50.240;8.596;2023-07-22T04:32:41;16.90;95.20
3690;DHT22;1861;50.240;8.596;2023-07-22T04:35:12;16.90;95.50
3690;DHT22;1861;50.240;8.596;2023-07-22T04:37:40;16.90;95.40
3690;DHT22;1861;50.240;8.596;2023-07-22T04:40:08;16.80;95.50
3690;DHT22;1861;50.240;8.596;2023-07-22T04:42:40;16.70;95.70
3690;DHT22;1861;50.240;8.596;2023-07-22T04:45:10;16.80;95.70
3690;DHT22;1861;50.240;8.596;2023-07-22T04:47:38;16.80;95.80
3690;DHT22;1861;50.240;8.596;2023-07-22T04:50:08;16.80;95.60
3690;DHT22;1861;50.240;8.596;2023-07-22T04:52:38;16.90;95.70
3690;DHT22;1861;50.240;8.596;2023-07-22T04:55:07;16.90;95.70
3690;DHT22;1861;50.240;8.596;2023-07-22T04:57:37;17.00;95.60
3690;DHT22;1861;50.240;8.596;2023-07-22T05:00:06;17.00;95.70
3690;DHT22;1861;50.240;8.596;2023-07-22T05:02:36;17.00;95.70
3690;DHT22;1861;50.240;8.596;2023-07-22T05:05:05;17.00;96.10
3690;DHT22;1861;50.240;8.596;2023-07-22T05:07:33;16.90;96.20
3690;DHT22;1861;50.240;8.596;2023-07-22T05:10:03;16.90;96.40
3690;DHT22;1861;50.240;8.596;2023-07-22T05:12:31;16.90;96.50
3690;DHT22;1861;50.240;8.596;2023-07-22T05:14:59;17.00;96.50
3690;DHT22;1861;50.240;8.596;2023-07-22T05:17:28;17.20;96.50
3690;DHT22;1861;50.240;8.596;2023-07-22T05:19:58;17.20;96.30
3690;DHT22;1861;50.240;8.596;2023-07-22T05:22:26;17.30;96.30
3690;DHT22;1861;50.240;8.596;2023-07-22T05:24:54;17.40;96.40
3690;DHT22;1861;50.240;8.596;2023-07-22T05:27:24;17.30;96.70
3690;DHT22;1861;50.240;8.596;2023-07-22T05:29:52;17.30;96.70
3690;DHT22;1861;50.240;8.596;2023-07-22T05:32:20;17.40;96.80
3690;DHT22;1861;50.240;8.596;2023-07-22T05:34:59;17.50;96.80
3690;DHT22;1861;50.240;8.596;2023-07-22T05:37:28;17.50;96.90
3690;DHT22;1861;50.240;8.596;2023-07-22T05:39:56;17.60;96.90
3690;DHT22;1861;50.240;8.596;2023-07-22T05:42:26;17.60;96.90
3690;DHT22;1861;50.240;8.596;2023-07-22T05:44:57;17.70;97.00
3690;DHT22;1861;50.240;8.596;2023-07-22T05:47:25;17.70;97.00
3690;DHT22;1861;50.240;8.596;2023-07-22T05:49:54;17.70;97.00
3690;DHT22;1861;50.240;8.596;2023-07-22T05:52:22;17.60;97.30
3690;DHT22;1861;50.240;8.596;2023-07-22T05:54:50;17.60;97.30
3690;DHT22;1861;50.240;8.596;2023-07-22T05:57:18;17.70;97.40
3690;DHT22;1861;50.240;8.596;2023-07-22T05:59:47;17.70;97.40
3690;DHT22;1861;50.240;8.596;2023-07-22T06:02:38;17.80;97.40
3690;DHT22;1861;50.240;8.596;2023-07-22T06:05:06;17.80;97.60
3690;DHT22;1861;50.240;8.596;2023-07-22T06:07:35;17.80;97.70
3690;DHT22;1861;50.240;8.596;2023-07-22T06:10:04;17.80;97.80
3690;DHT22;1861;50.240;8.596;2023-07-22T06:12:32;17.90;97.80
3690;DHT22;1861;50.240;8.596;2023-07-22T06:15:02;17.80;97.90
3690;DHT22;1861;50.240;8.596;2023-07-22T06:17:30;17.80;98.10
3690;DHT22;1861;50.240;8.596;2023-07-22T06:19:58;17.90;98.20
3690;DHT22;1861;50.240;8.596;2023-07-22T06:22:26;17.90;98.10
3690;DHT22;1861;50.240;8.596;2023-07-22T06:24:55;17.80;98.00
3690;DHT22;1861;50.240;8.596;2023-07-22T06:27:23;17.90;97.60
3690;DHT22;1861;50.240;8.596;2023-07-22T06:29:51;17.90;98.00
3690;DHT22;1861;50.240;8.596;2023-07-22T06:32:20;18.00;98.00
3690;DHT22;1861;50.240;8.596;2023-07-22T06:34:49;18.00;98.40
3690;DHT22;1861;50.240;8.596;2023-07-22T06:37:17;18.00;98.70
3690;DHT22;1861;50.240;8.596;2023-07-22T06:39:45;18.00;98.80
3690;DHT22;1861;50.240;8.596;2023-07-22T06:42:13;18.10;98.30
3690;DHT22;1861;50.240;8.596;2023-07-22T06:44:42;18.10;97.70
3690;DHT22;1861;50.240;8.596;2023-07-22T06:47:10;18.20;97.50
3690;DHT22;1861;50.240;8.596;2023-07-22T06:49:39;18.20;97.50
3690;DHT22;1861;50.240;8.596;2023-07-22T06:52:12;18.20;97.80
3690;DHT22;1861;50.240;8.596;2023-07-22T06:54:40;18.20;97.90
3690;DHT22;1861;50.240;8.596;2023-07-22T06:57:08;18.20;98.00
3690;DHT22;1861;50.240;8.596;2023-07-22T06:59:36;18.30;98.50
3690;DHT22;1861;50.240;8.596;2023-07-22T07:02:04;18.30;98.70
3690;DHT22;1861;50.240;8.596;2023-07-22T07:04:33;18.40;98.70
3690;DHT22;1861;50.240;8.596;2023-07-22T07:07:02;18.40;98.60
3690;DHT22;1861;50.240;8.596;2023-07-22T07:09:30;18.50;98.50
3690;DHT22;1861;50.240;8.596;2023-07-22T07:11:59;18.50;98.80
3690;DHT22;1861;50.240;8.596;2023-07-22T07:14:27;18.50;98.50
3690;DHT22;1861;50.240;8.596;2023-07-22T07:16:55;18.60;98.20
3690;DHT22;1861;50.240;8.596;2023-07-22T07:19:23;18.70;98.30
3690;DHT22;1861;50.240;8.596;2023-07-22T07:21:51;18.70;98.10
3690;DHT22;1861;50.240;8.596;2023-07-22T07:24:21;18.70;98.20
3690;DHT22;1861;50.240;8.596;2023-07-22T07:26:49;18.70;98.60
3690;DHT22;1861;50.240;8.596;2023-07-22T07:29:17;18.80;98.60
3690;DHT22;1861;50.240;8.596;2023-07-22T07:32:06;18.80;98.70
3690;DHT22;1861;50.240;8.596;2023-07-22T07:34:34;18.80;98.10
3690;DHT22;1861;50.240;8.596;2023-07-22T07:37:03;18.80;98.00
3690;DHT22;1861;50.240;8.596;2023-07-22T07:39:32;18.80;97.90
3690;DHT22;1861;50.240;8.596;2023-07-22T07:42:00;18.90;97.40
3690;DHT22;1861;50.240;8.596;2023-07-22T07:44:29;18.90;97.40
3690;DHT22;1861;50.240;8.596;2023-07-22T07:46:57;18.90;98.10
3690;DHT22;1861;50.240;8.596;2023-07-22T07:49:25;19.00;98.20
3690;DHT22;1861;50.240;8.596;2023-07-22T07:51:53;19.00;97.80
3690;DHT22;1861;50.240;8.596;2023-07-22T07:54:21;19.00;97.40
3690;DHT22;1861;50.240;8.596;2023-07-22T07:56:50;19.00;97.10
3690;DHT22;1861;50.240;8.596;2023-07-22T07:59:19;19.10;97.20
3690;DHT22;1861;50.240;8.596;2023-07-22T08:01:47;19.10;97.40
3690;DHT22;1861;50.240;8.596;2023-07-22T08:04:15;19.20;97.40
3690;DHT22;1861;50.240;8.596;2023-07-22T08:06:44;19.20;97.00
3690;DHT22;1861;50.240;8.596;2023-07-22T08:09:13;19.20;97.20
3690;DHT22;1861;50.240;8.596;2023-07-22T08:11:45;19.30;97.00
3690;DHT22;1861;50.240;8.596;2023-07-22T08:14:15;19.30;96.70
3690;DHT22;1861;50.240;8.596;2023-07-22T08:16:44;19.30;96.50
3690;DHT22;1861;50.240;8.596;2023-07-22T08:19:12;19.30;96.90
3690;DHT22;1861;50.240;8.596;2023-07-22T08:21:40;19.30;96.80
3690;DHT22;1861;50.240;8.596;2023-07-22T08:24:08;19.40;97.00
3690;DHT22;1861;50.240;8.596;2023-07-22T08:26:37;19.40;96.70
3690;DHT22;1861;50.240;8.596;2023-07-22T08:29:05;19.40;96.90
3690;DHT22;1861;50.240;8.596;2023-07-22T08:31:34;19.50;96.90
3690;DHT22;1861;50.240;8.596;2023-07-22T08:34:03;19.50;96.80
3690;DHT22;1861;50.240;8.596;2023-07-22T08:36:31;19.50;96.70
3690;DHT22;1861;50.240;8.596;2023-07-22T08:38:59;19.50;96.70
3690;DHT22;1861;50.240;8.596;2023-07-22T08:41:28;19.50;96.70
3690;DHT22;1861;50.240;8.596;2023-07-22T08:43:59;19.60;96.70
3690;DHT22;1861;50.240;8.596;2023-07-22T08:46:29;19.60;96.80
3690;DHT22;1861;50.240;8.596;2023-07-22T08:49:00;19.60;96.80
3690;DHT22;1861;50.240;8.596;2023-07-22T08:51:29;19.60;96.80
3690;DHT22;1861;50.240;8.596;2023-07-22T08:53:59;19.60;96.60
3690;DHT22;1861;50.240;8.596;2023-07-22T08:56:38;19.60;96.60
3690;DHT22;1861;50.240;8.596;2023-07-22T08:59:07;19.70;96.80
3690;DHT22;1861;50.240;8.596;2023-07-22T09:01:37;19.70;96.70
3690;DHT22;1861;50.240;8.596;2023-07-22T09:04:08;19.70;96.60
3690;DHT22;1861;50.240;8.596;2023-07-22T09:06:36;19.80;96.70
3690;DHT22;1861;50.240;8.596;2023-07-22T09:09:04;19.80;95.70
3690;DHT22;1861;50.240;8.596;2023-07-22T09:11:35;19.80;95.90
3690;DHT22;1861;50.240;8.596;2023-07-22T09:14:03;19.80;96.10
3690;DHT22;1861;50.240;8.596;2023-07-22T09:16:32;19.80;96.20
3690;DHT22;1861;50.240;8.596;2023-07-22T09:19:03;19.90;96.30
3690;DHT22;1861;50.240;8.596;2023-07-22T09:21:34;19.90;96.30
3690;DHT22;1861;50.240;8.596;2023-07-22T09:24:20;19.90;96.10
3690;DHT22;1861;50.240;8.596;2023-07-22T09:26:49;20.00;96.30
3690;DHT22;1861;50.240;8.596;2023-07-22T09:29:18;20.00;95.90
3690;DHT22;1861;50.240;8.596;2023-07-22T09:31:50;20.00;95.90
3690;DHT22;1861;50.240;8.596;2023-07-22T09:34:19;20.00;96.00
3690;DHT22;1861;50.240;8.596;2023-07-22T09:36:52;20.00;96.00
3690;DHT22;1861;50.240;8.596;2023-07-22T09:39:22;20.00;96.00
3690;DHT22;1861;50.240;8.596;2023-07-22T09:41:50;20.10;96.10
3690;DHT22;1861;50.240;8.596;2023-07-22T09:44:19;20.00;96.00
3690;DHT22;1861;50.240;8.596;2023-07-22T09:46:48;20.10;96.10
3690;DHT22;1861;50.240;8.596;2023-07-22T09:49:18;20.10;96.00
3690;DHT22;1861;50.240;8.596;2023-07-22T09:51:46;20.10;95.90
3690;DHT22;1861;50.240;8.596;2023-07-22T09:54:29;20.20;95.40
3690;DHT22;1861;50.240;8.596;2023-07-22T09:56:58;20.20;95.60
3690;DHT22;1861;50.240;8.596;2023-07-22T09:59:29;20.10;95.60
3690;DHT22;1861;50.240;8.596;2023-07-22T10:01:57;20.10;95.30
3690;DHT22;1861;50.240;8.596;2023-07-22T10:04:33;20.10;95.30
3690;DHT22;1861;50.240;8.596;2023-07-22T10:07:05;20.10;95.20
3690;DHT22;1861;50.240;8.596;2023-07-22T10:09:37;20.10;95.40
3690;DHT22;1861;50.240;8.596;2023-07-22T10:12:07;20.10;95.00
3690;DHT22;1861;50.240;8.596;2023-07-22T10:14:36;20.20;95.40
3690;DHT22;1861;50.240;8.596;2023-07-22T10:17:05;20.20;94.90
3690;DHT22;1861;50.240;8.596;2023-07-22T10:19:34;20.20;94.90
3690;DHT22;1861;50.240;8.596;2023-07-22T10:22:03;20.30;94.80
3690;DHT22;1861;50.240;8.596;2023-07-22T10:24:36;20.30;94.60
3690;DHT22;1861;50.240;8.596;2023-07-22T10:27:06;20.30;94.60
3690;DHT22;1861;50.240;8.596;2023-07-22T10:29:35;20.30;94.60
3690;DHT22;1861;50.240;8.596;2023-07-22T10:32:04;20.30;94.40
3690;DHT22;1861;50.240;8.596;2023-07-22T10:34:32;20.30;94.30
3690;DHT22;1861;50.240;8.596;2023-07-22T10:37:01;20.30;94.40
3690;DHT22;1861;50.240;8.596;2023-07-22T10:39:31;20.30;94.30
3690;DHT22;1861;50.240;8.596;2023-07-22T10:42:04;20.40;94.30
3690;DHT22;1861;50.240;8.596;2023-07-22T10:44:33;20.40;94.20
3690;DHT22;1861;50.240;8.596;2023-07-22T10:47:01;20.40;94.10
3690;DHT22;1861;50.240;8.596;2023-07-22T10:49:43;20.30;93.90
3690;DHT22;1861;50.240;8.596;2023-07-22T10:52:12;20.40;94.10
3690;DHT22;1861;50.240;8.596;2023-07-22T10:54:41;20.30;93.90
3690;DHT22;1861;50.240;8.596;2023-07-22T10:57:28;20.40;94.10
3690;DHT22;1861;50.240;8.596;2023-07-22T10:59:57;20.50;93.80
3690;DHT22;1861;50.240;8.596;2023-07-22T11:02:26;20.50;93.70
3690;DHT22;1861;50.240;8.596;2023-07-22T11:04:56;20.60;93.60
3690;DHT22;1861;50.240;8.596;2023-07-22T11:07:31;20.60;93.70
3690;DHT22;1861;50.240;8.596;2023-07-22T11:10:11;20.60;93.60
3690;DHT22;1861;50.240;8.596;2023-07-22T11:12:42;20.60;93.30
3690;DHT22;1861;50.240;8.596;2023-07-22T11:15:14;20.60;93.20
3690;DHT22;1861;50.240;8.596;2023-07-22T11:17:43;20.60;92.70
3690;DHT22;1861;50.240;8.596;2023-07-22T11:20:11;20.60;92.70
3690;DHT22;1861;50.240;8.596;2023-07-22T11:22:39;20.60;92.80
3690;DHT22;1861;50.240;8.596;2023-07-22T11:25:08;20.70;92.80
3690;DHT22;1861;50.240;8.596;2023-07-22T11:27:37;20.70;92.90
3690;DHT22;1861;50.240;8.596;2023-07-22T11:30:11;20.70;92.80
3690;DHT22;1861;50.240;8.596;2023-07-22T11:32:42;20.70;92.80
3690;DHT22;1861;50.240;8.596;2023-07-22T11:35:11;20.60;92.70
3690;DHT22;1861;50.240;8.596;2023-07-22T11:37:39;20.60;92.70
3690;DHT22;1861;50.240;8.596;2023-07-22T11:40:11;20.60;92.80
3690;DHT22;1861;50.240;8.596;2023-07-22T11:42:40;20.60;92.60
3690;DHT22;1861;50.240;8.596;2023-07-22T11:45:10;20.60;92.60
3690;DHT22;1861;50.240;8.596;2023-07-22T11:47:38;20.70;92.90
3690;DHT22;1861;50.240;8.596;2023-07-22T11:50:07;20.70;92.70
3690;DHT22;1861;50.240;8.596;2023-07-22T11:52:36;20.70;92.60
3690;DHT22;1861;50.240;8.596;2023-07-22T11:55:05;20.80;92.60
3690;DHT22;1861;50.240;8.596;2023-07-22T11:57:33;20.70;92.50
3690;DHT22;1861;50.240;8.596;2023-07-22T12:00:02;20.80;92.70
3690;DHT22;1861;50.240;8.596;2023-07-22T12:02:35;20.80;92.50
3690;DHT22;1861;50.240;8.596;2023-07-22T12:05:05;20.80;92.50
3690;DHT22;1861;50.240;8.596;2023-07-22T12:07:34;20.70;92.40
3690;DHT22;1861;50.240;8.596;2023-07-22T12:10:04;20.80;92.50
3690;DHT22;1861;50.240;8.596;2023-07-22T12:12:33;20.90;92.40
3690;DHT22;1861;50.240;8.596;2023-07-22T12:15:09;20.90;92.30
3690;DHT22;1861;50.240;8.596;2023-07-22T12:17:46;20.90;91.80
3690;DHT22;1861;50.240;8.596;2023-07-22T12:20:15;20.90;92.00
3690;DHT22;1861;50.240;8.596;2023-07-22T12:22:43;20.90;92.00
3690;DHT22;1861;50.240;8.596;2023-07-22T12:25:11;20.80;91.90
3690;DHT22;1861;50.240;8.596;2023-07-22T12:27:39;20.90;91.80
3690;DHT22;1861;50.240;8.596;2023-07-22T12:30:08;20.90;91.90
3690;DHT22;1861;50.240;8.596;2023-07-22T12:32:37;21.00;91.80
3690;DHT22;1861;50.240;8.596;2023-07-22T12:35:09;21.10;91.70
3690;DHT22;1861;50.240;8.596;2023-07-22T12:37:37;21.40;91.80
3690;DHT22;1861;50.240;8.596;2023-07-22T12:40:06;21.30;91.50
3690;DHT22;1861;50.240;8.596;2023-07-22T12:42:35;21.30;91.50
3690;DHT22;1861;50.240;8.596;2023-07-22T12:45:05;21.40;91.50
3690;DHT22;1861;50.240;8.596;2023-07-22T12:47:33;21.30;91.60
3690;DHT22;1861;50.240;8.596;2023-07-22T12:50:01;21.30;91.70
3690;DHT22;1861;50.240;8.596;2023-07-22T12:52:32;21.20;91.60
3690;DHT22;1861;50.240;8.596;2023-07-22T12:55:00;21.40;91.70
3690;DHT22;1861;50.240;8.596;2023-07-22T12:57:28;21.30;91.80
3690;DHT22;1861;50.240;8.596;2023-07-22T12:59:56;21.40;91.40
3690;DHT22;1861;50.240;8.596;2023-07-22T13:02:24;21.30;91.70
3690;DHT22;1861;50.240;8.596;2023-07-22T13:04:53;21.30;91.10
3690;DHT22;1861;50.240;8.596;2023-07-22T13:07:21;21.30;91.10
3690;DHT22;1861;50.240;8.596;2023-07-22T13:09:50;21.20;91.20
3690;DHT22;1861;50.240;8.596;2023-07-22T13:12:20;21.10;91.20
3690;DHT22;1861;50.240;8.596;2023-07-22T13:14:48;21.10;91.30
3690;DHT22;1861;50.240;8.596;2023-07-22T13:17:16;21.10;91.10
3690;DHT22;1861;50.240;8.596;2023-07-22T13:19:44;21.10;91.30
3690;DHT22;1861;50.240;8.596;2023-07-22T13:22:12;21.20;91.10
3690;DHT22;1861;50.240;8.596;2023-07-22T13:24:41;21.10;91.10
3690;DHT22;1861;50.240;8.596;2023-07-22T13:27:10;21.20;91.10
3690;DHT22;1861;50.240;8.596;2023-07-22T13:29:39;21.30;91.00
3690;DHT22;1861;50.240;8.596;2023-07-22T13:32:08;21.20;91.10
3690;DHT22;1861;50.240;8.596;2023-07-22T13:34:36;21.10;91.10
3690;DHT22;1861;50.240;8.596;2023-07-22T13:37:04;21.20;91.00
3690;DHT22;1861;50.240;8.596;2023-07-22T13:39:33;21.30;90.90
3690;DHT22;1861;50.240;8.596;2023-07-22T13:42:01;21.40;91.10
3690;DHT22;1861;50.240;8.596;2023-07-22T13:44:31;21.50;91.10
3690;DHT22;1861;50.240;8.596;2023-07-22T13:46:59;21.90;90.90
3690;DHT22;1861;50.240;8.596;2023-07-22T13:49:28;22.00;90.60
3690;DHT22;1861;50.240;8.596;2023-07-22T13:51:56;22.30;91.10
3690;DHT22;1861;50.240;8.596;2023-07-22T13:54:24;22.50;90.70
3690;DHT22;1861;50.240;8.596;2023-07-22T13:56:52;22.70;90.10
3690;DHT22;1861;50.240;8.596;2023-07-22T13:59:21;22.60;89.10
3690;DHT22;1861;50.240;8.596;2023-07-22T14:01:50;22.30;89.50
3690;DHT22;1861;50.240;8.596;2023-07-22T14:04:18;22.00;90.00
3690;DHT22;1861;50.240;8.596;2023-07-22T14:06:46;21.80;89.90
3690;DHT22;1861;50.240;8.596;2023-07-22T14:09:14;21.70;89.80
3690;DHT22;1861;50.240;8.596;2023-07-22T14:11:42;21.60;90.00
3690;DHT22;1861;50.240;8.596;2023-07-22T14:14:11;21.50;90.10
3690;DHT22;1861;50.240;8.596;2023-07-22T14:16:39;21.60;90.40
3690;DHT22;1861;50.240;8.596;2023-07-22T14:19:08;21.90;90.10
3690;DHT22;1861;50.240;8.596;2023-07-22T14:21:36;21.90;89.80
3690;DHT22;1861;50.240;8.596;2023-07-22T14:24:04;21.80;89.70
3690;DHT22;1861;50.240;8.596;2023-07-22T14:26:32;21.70;89.90
3690;DHT22;1861;50.240;8.596;2023-07-22T14:29:00;21.60;90.20
3690;DHT22;1861;50.240;8.596;2023-07-22T14:31:29;21.60;90.30
3690;DHT22;1861;50.240;8.596;2023-07-22T14:33:57;21.60;90.50
3690;DHT22;1861;50.240;8.596;2023-07-22T14:36:26;21.60;90.70
3690;DHT22;1861;50.240;8.596;2023-07-22T14:38:55;21.70;90.70
3690;DHT22;1861;50.240;8.596;2023-07-22T14:41:24;21.60;90.70
3690;DHT22;1861;50.240;8.596;2023-07-22T14:43:53;21.60;91.10
3690;DHT22;1861;50.240;8.596;2023-07-22T14:46:21;21.60;91.30
3690;DHT22;1861;50.240;8.596;2023-07-22T14:48:49;21.60;91.20
3690;DHT22;1861;50.240;8.596;2023-07-22T14:51:17;21.60;91.10
3690;DHT22;1861;50.240;8.596;2023-07-22T14:53:47;21.70;91.20
3690;DHT22;1861;50.240;8.596;2023-07-22T14:56:15;21.70;91.40
3690;DHT22;1861;50.240;8.596;2023-07-22T14:58:43;21.60;91.50
3690;DHT22;1861;50.240;8.596;2023-07-22T15:01:11;21.60;91.60
3690;DHT22;1861;50.240;8.596;2023-07-22T15:03:39;21.60;91.60
3690;DHT22;1861;50.240;8.596;2023-07-22T15:06:07;21.60;91.70
3690;DHT22;1861;50.240;8.596;2023-07-22T15:08:36;21.60;91.60
3690;DHT22;1861;50.240;8.596;2023-07-22T15:11:05;21.60;91.60
3690;DHT22;1861;50.240;8.596;2023-07-22T15:13:34;21.70;91.40
3690;DHT22;1861;50.240;8.596;2023-07-22T15:16:03;21.70;91.40
3690;DHT22;1861;50.240;8.596;2023-07-22T15:18:31;21.70;91.40
3690;DHT22;1861;50.240;8.596;2023-07-22T15:21:00;21.60;91.60
3690;DHT22;1861;50.240;8.596;2023-07-22T15:23:28;21.60;91.50
3690;DHT22;1861;50.240;8.596;2023-07-22T15:25:56;21.60;91.60
3690;DHT22;1861;50.240;8.596;2023-07-22T15:28:26;21.60;91.40
3690;DHT22;1861;50.240;8.596;2023-07-22T15:30:54;21.60;91.50
3690;DHT22;1861;50.240;8.596;2023-07-22T15:33:22;21.60;91.60
3690;DHT22;1861;50.240;8.596;2023-07-22T15:35:53;21.60;91.90
3690;DHT22;1861;50.240;8.596;2023-07-22T15:38:21;21.50;91.80
3690;DHT22;1861;50.240;8.596;2023-07-22T15:40:50;21.50;91.60
3690;DHT22;1861;50.240;8.596;2023-07-22T15:43:18;21.50;91.30
3690;DHT22;1861;50.240;8.596;2023-07-22T15:45:48;21.50;91.60
3690;DHT22;1861;50.240;8.596;2023-07-22T15:48:16;21.50;91.50
3690;DHT22;1861;50.240;8.596;2023-07-22T15:50:44;21.40;91.20
3690;DHT22;1861;50.240;8.596;2023-07-22T15:53:12;21.40;91.20
3690;DHT22;1861;50.240;8.596;2023-07-22T15:55:40;21.50;91.20
3690;DHT22;1861;50.240;8.596;2023-07-22T15:58:09;21.50;91.20
3690;DHT22;1861;50.240;8.596;2023-07-22T16:00:37;21.50;91.00
3690;DHT22;1861;50.240;8.596;2023-07-22T16:03:07;21.50;91.00
3690;DHT22;1861;50.240;8.596;2023-07-22T16:05:36;21.50;91.30
3690;DHT22;1861;50.240;8.596;2023-07-22T16:08:05;21.50;91.00
3690;DHT22;1861;50.240;8.596;2023-07-22T16:10:33;21.50;91.30
3690;DHT22;1861;50.240;8.596;2023-07-22T16:13:01;21.50;91.30
3690;DHT22;1861;50.240;8.596;2023-07-22T16:15:29;21.50;91.40